Time;durP1;ratioP1;P1;durP2;ratioP2;P2;SDS_P1;SDS_P2;PMS_P1;PMS_P2;Temp;Humidity;BMP_temperature;BMP_pressure;BME280_temperature;BME280_humidity;BME280_pressure;Samples;Min_cycle;Max_cycle;Signal;HPM_P1;HPM_P2
2021/11/12 00:13:28;;;;;;;3.50;2.52;;;;;;;6.93;93.18;101841.59;1719094;80;21050;-58
2021/11/12 00:15:58;;;;;;;4.33;2.42;;;;;;;6.92;93.19;101839.83;1727799;80;21816;-58
2021/11/12 00:18:28;;;;;;;6.87;2.47;;;;;;;6.88;93.30;101834.97;1744375;80;21027;-57
2021/11/12 00:20:57;;;;;;;3.65;2.30;;;;;;;6.86;93.50;101828.29;1760668;80;21092;-61
2021/11/12 00:23:24;;;;;;;6.33;2.47;;;;;;;6.86;93.73;101824.75;1750400;80;21571;-60
2021/11/12 00:25:51;;;;;;;3.40;2.37;;;;;;;6.87;93.90;101823.86;1747752;79;21035;-61
2021/11/12 00:28:21;;;;;;;4.80;2.60;;;;;;;6.87;94.15;101819.86;1750980;79;20984;-60
2021/11/12 00:31:10;;;;;;;5.03;2.33;;;;;;;6.89;94.38;101823.41;1753161;79;21535;-61
2021/11/12 00:41:33;;;;;;;5.33;2.22;;;;;;;6.92;94.70;101809.16;1764438;79;21099;-58
2021/11/12 00:46:38;;;;;;;7.00;2.60;;;;;;;6.93;94.78;101802.94;1685738;78;21464;-61
2021/11/12 00:49:09;;;;;;;6.53;2.58;;;;;;;6.94;94.79;101810.05;1785067;78;21631;-60
2021/11/12 00:52:37;;;;;;;5.80;2.52;;;;;;;6.94;94.79;101804.71;1734283;81;21107;-61
2021/11/12 00:56:29;;;;;;;4.53;2.42;;;;;;;6.96;94.74;101796.26;1740197;80;21118;-61
2021/11/12 00:58:58;;;;;;;4.10;2.33;;;;;;;6.94;94.70;101791.38;1745441;80;21805;-61
2021/11/12 01:01:26;;;;;;;8.05;2.50;;;;;;;6.94;94.72;101786.05;1747338;80;21120;-61
2021/11/12 01:03:53;;;;;;;4.15;2.35;;;;;;;6.94;94.69;101775.38;1760023;80;21039;-61
2021/11/12 01:06:20;;;;;;;7.67;2.17;;;;;;;6.91;94.88;101778.97;1771278;79;20966;-58
2021/11/12 01:08:48;;;;;;;6.12;2.45;;;;;;;6.93;94.87;101778.94;1771539;79;21067;-58
2021/11/12 01:11:16;;;;;;;3.58;2.40;;;;;;;6.94;95.03;101770.05;1773012;78;21667;-59
2021/11/12 01:13:43;;;;;;;5.90;2.25;;;;;;;6.96;95.03;101769.59;1746162;80;21703;-60
2021/11/12 01:16:11;;;;;;;4.10;2.27;;;;;;;6.96;95.02;101757.59;1746563;80;21072;-59
2021/11/12 01:18:38;;;;;;;4.17;2.40;;;;;;;6.96;95.18;101765.59;1766416;79;21060;-59
2021/11/12 01:21:07;;;;;;;5.72;2.22;;;;;;;6.97;95.32;101765.61;1765347;80;21063;-58
2021/11/12 01:23:34;;;;;;;8.88;2.95;;;;;;;7.00;95.65;101759.39;1775584;78;21173;-61
2021/11/12 01:26:01;;;;;;;6.08;2.58;;;;;;;7.06;95.72;101764.69;1764488;79;21045;-61
2021/11/12 01:28:29;;;;;;;4.60;2.30;;;;;;;7.08;95.79;101752.23;1752275;79;21093;-62
2021/11/12 01:30:57;;;;;;;5.95;2.70;;;;;;;7.10;95.90;101755.77;1764663;80;21056;-61
2021/11/12 01:33:24;;;;;;;2.72;2.20;;;;;;;7.12;95.98;101751.31;1748487;79;21098;-60
2021/11/12 01:35:52;;;;;;;6.08;2.50;;;;;;;7.14;96.24;101744.19;1752447;78;21149;-60
2021/11/12 01:38:19;;;;;;;5.25;2.52;;;;;;;7.17;96.27;101744.17;1750325;80;21081;-60
2021/11/12 01:40:47;;;;;;;3.47;2.55;;;;;;;7.20;96.38;101749.08;1749567;81;21083;-59
2021/11/12 01:43:22;;;;;;;5.70;2.30;;;;;;;7.21;96.45;101747.72;1744417;80;21478;-59
2021/11/12 01:51:20;;;;;;;4.53;2.67;;;;;;;7.23;96.75;101757.06;1761289;79;21469;-59
2021/11/12 01:53:44;;;;;;;5.03;2.85;;;;;;;7.23;96.76;101753.06;1750261;80;21722;-60
2021/11/12 01:59:06;;;;;;;6.40;2.85;;;;;;;7.23;96.75;101751.27;1742574;80;21026;-62
2021/11/12 02:01:06;;;;;;;3.52;2.50;;;;;;;7.24;96.79;101756.17;1727405;80;21662;-61
2021/11/12 02:03:33;;;;;;;4.10;2.67;;;;;;;7.23;96.70;101753.06;1726369;80;21049;-61
2021/11/12 02:06:00;;;;;;;4.45;2.33;;;;;;;7.23;96.86;101755.27;1735459;80;21464;-60
2021/11/12 02:08:26;;;;;;;4.72;2.42;;;;;;;7.24;96.90;101753.50;1733519;81;21518;-61
2021/11/12 02:10:55;;;;;;;3.45;2.37;;;;;;;7.23;96.91;101751.73;1780037;79;21721;-61
2021/11/12 02:13:24;;;;;;;3.95;2.47;;;;;;;7.23;96.96;101755.27;1782899;79;22042;-60
2021/11/12 02:15:50;;;;;;;3.58;2.40;;;;;;;7.23;96.98;101748.59;1781521;78;21054;-60
2021/11/12 02:18:27;;;;;;;4.17;2.33;;;;;;;7.25;97.20;101751.27;1772237;78;21015;-61
2021/11/12 02:21:00;;;;;;;4.50;2.15;;;;;;;7.27;97.11;101744.14;1768956;79;21079;-60
2021/11/12 02:23:27;;;;;;;3.45;2.25;;;;;;;7.25;97.27;101747.27;1775667;79;21033;-57
2021/11/12 02:25:50;;;;;;;3.37;2.22;;;;;;;7.25;97.62;101750.80;1762930;80;21676;-59
2021/11/12 02:28:17;;;;;;;5.40;2.02;;;;;;;7.26;97.82;101753.05;1765351;78;21075;-58
2021/11/12 02:30:52;;;;;;;6.08;2.40;;;;;;;7.26;98.01;101754.38;1745322;80;22012;-58
2021/11/12 02:33:17;;;;;;;5.87;2.20;;;;;;;7.28;98.05;101751.25;1744668;80;21167;-58
2021/11/12 02:36:06;;;;;;;6.78;2.30;;;;;;;7.28;98.15;101752.59;1783918;79;21543;-57
2021/11/12 02:38:38;;;;;;;4.12;2.08;;;;;;;7.28;98.09;101750.78;1751147;79;21186;-58
2021/11/12 02:41:05;;;;;;;5.47;2.40;;;;;;;7.26;98.01;101759.25;1770527;79;21232;-58
2021/11/12 02:43:35;;;;;;;2.87;2.30;;;;;;;7.27;98.18;101753.48;1763440;79;21082;-59
2021/11/12 02:46:04;;;;;;;4.80;2.33;;;;;;;7.24;98.05;101752.16;1741047;80;21048;-58
2021/11/12 02:48:36;;;;;;;5.95;2.58;;;;;;;7.21;98.03;101758.85;1747124;79;21003;-57
2021/11/12 02:51:04;;;;;;;4.10;2.30;;;;;;;7.17;98.12;101760.17;1755544;80;21133;-57
2021/11/12 02:53:31;;;;;;;5.65;2.40;;;;;;;7.13;98.21;101761.09;1752403;80;21647;-58
2021/11/12 02:56:02;;;;;;;4.22;2.20;;;;;;;7.09;98.34;101764.67;1741085;79;21076;-58
2021/11/12 02:58:27;;;;;;;3.37;2.15;;;;;;;7.09;98.59;101758.47;1769835;78;21121;-58
2021/11/12 03:00:54;;;;;;;4.65;2.40;;;;;;;7.10;98.84;101753.56;1739707;81;21102;-58
2021/11/12 03:03:22;;;;;;;5.03;2.30;;;;;;;7.09;98.93;101754.00;1750831;81;21572;-57
2021/11/12 03:05:48;;;;;;;4.40;2.42;;;;;;;7.09;99.00;101751.34;1773311;79;21591;-58
2021/11/12 03:08:15;;;;;;;4.65;2.00;;;;;;;7.06;99.05;101756.69;1771572;79;21094;-60
2021/11/12 03:10:42;;;;;;;10.58;2.80;;;;;;;7.05;99.13;101762.91;1770467;79;21547;-58
2021/11/12 03:13:09;;;;;;;4.33;2.20;;;;;;;7.03;99.31;101764.70;1765306;79;21126;-59
2021/11/12 03:15:37;;;;;;;4.05;2.25;;;;;;;7.03;99.52;101762.91;1770460;80;21160;-57
2021/11/12 03:18:04;;;;;;;5.70;2.62;;;;;;;7.02;99.42;101762.93;1758467;79;21044;-59
2021/11/12 03:20:31;;;;;;;4.03;2.33;;;;;;;7.01;99.30;101763.83;1756991;79;21989;-59
2021/11/12 03:23:04;;;;;;;3.75;2.40;;;;;;;6.99;99.29;101757.15;1761824;80;21560;-58
2021/11/12 03:28:16;;;;;;;6.33;2.90;;;;;;;7.00;99.21;101754.05;1686803;81;21215;-59
2021/11/12 03:50:00;;;;;;;4.17;2.70;;;;;;;6.83;98.91;101757.66;1772005;78;21550;-62
2021/11/12 04:06:13;;;;;;;6.33;3.50;;;;;;;6.70;99.40;101755.91;1776064;79;21173;-61
2021/11/12 04:41:23;;;;;;;10.60;3.87;;;;;;;6.81;100.00;101758.55;1767694;78;20999;-61
2021/11/12 05:46:13;;;;;;;14.87;6.40;;;;;;;8.12;99.68;101797.43;1760579;80;21110;-59
2021/11/12 05:51:37;;;;;;;8.38;5.22;;;;;;;8.24;99.16;101796.44;1755181;80;21599;-58
2021/11/12 05:56:47;;;;;;;10.28;5.30;;;;;;;8.34;98.54;101798.59;1748047;79;21114;-57
2021/11/12 05:59:15;;;;;;;7.90;4.90;;;;;;;8.37;98.21;101791.41;1732311;81;21460;-58
2021/11/12 06:01:43;;;;;;;10.63;4.72;;;;;;;8.41;97.97;101794.95;1772148;79;21105;-58
2021/11/12 06:04:11;;;;;;;9.03;4.85;;;;;;;8.44;97.71;101794.92;1777268;79;21559;-58
2021/11/12 06:06:37;;;;;;;6.90;4.53;;;;;;;8.46;97.40;101797.13;1733699;80;21115;-58
2021/11/12 06:09:04;;;;;;;10.43;4.40;;;;;;;8.48;97.17;101799.33;1766179;78;21476;-58
2021/11/12 06:11:32;;;;;;;9.28;4.58;;;;;;;8.51;97.04;101795.78;1757904;79;21041;-59
2021/11/12 06:14:00;;;;;;;6.03;4.10;;;;;;;8.53;96.71;101794.88;1761450;80;21036;-60
2021/11/12 06:16:27;;;;;;;7.72;4.12;;;;;;;8.56;96.40;101800.19;1740089;80;21039;-58
2021/11/12 06:18:54;;;;;;;6.97;4.50;;;;;;;8.59;96.27;101800.16;1763487;79;22199;-60
2021/11/12 06:21:22;;;;;;;11.45;4.92;;;;;;;8.65;95.87;101795.64;1759301;80;21092;-59
2021/11/12 06:23:49;;;;;;;7.30;4.12;;;;;;;8.68;95.51;101799.62;1742756;79;22188;-58
2021/11/12 06:26:15;;;;;;;6.83;4.40;;;;;;;8.72;95.16;101793.33;1750737;80;21084;-57
2021/11/12 06:28:42;;;;;;;9.93;4.15;;;;;;;8.76;94.89;101788.41;1749615;80;21198;-58
2021/11/12 06:31:10;;;;;;;8.85;4.45;;;;;;;8.82;94.57;101792.34;1750290;79;21093;-58
2021/11/12 06:33:37;;;;;;;8.05;4.37;;;;;;;8.87;94.04;101783.81;1749299;80;21129;-59
2021/11/12 06:36:04;;;;;;;6.72;4.00;;;;;;;8.92;93.70;101780.20;1751933;79;21062;-58
2021/11/12 06:38:32;;;;;;;8.50;3.92;;;;;;;8.95;93.21;101775.70;1755462;79;21614;-58
2021/11/12 06:41:04;;;;;;;5.17;3.62;;;;;;;8.99;92.90;101775.23;1770118;79;21609;-60
2021/11/12 06:43:40;;;;;;;13.68;3.80;;;;;;;9.02;92.65;101776.53;1742497;80;21127;-61
2021/11/12 06:51:34;;;;;;;6.47;3.80;;;;;;;9.25;91.92;101782.05;1779324;78;21084;-61
2021/11/12 06:54:00;;;;;;;5.65;3.08;;;;;;;9.35;91.65;101770.77;1772691;79;22273;-63
2021/11/12 06:56:28;;;;;;;8.25;3.37;;;;;;;9.41;91.24;101779.60;1753656;79;21028;-63
2021/11/12 06:58:54;;;;;;;6.85;2.90;;;;;;;9.49;90.84;101775.92;1753827;79;21103;-58
2021/11/12 07:01:21;;;;;;;7.08;3.37;;;;;;;9.55;90.78;101775.83;1756252;79;21031;-61
2021/11/12 07:03:48;;;;;;;8.33;3.20;;;;;;;9.62;90.59;101769.50;1767524;79;20976;-62
2021/11/12 07:06:14;;;;;;;4.15;2.80;;;;;;;9.71;90.40;101774.70;1755807;80;21108;-61
2021/11/12 07:08:41;;;;;;;6.45;2.75;;;;;;;9.82;90.20;101776.31;1750601;80;21091;-58
2021/11/12 07:22:35;;;;;;;7.05;3.25;;;;;;;10.69;87.00;101773.09;1767481;79;29529;-63
2021/11/12 07:25:04;;;;;;;6.40;2.80;;;;;;;10.73;86.12;101775.27;1741286;80;21011;-62
2021/11/12 07:27:30;;;;;;;5.00;2.95;;;;;;;10.77;85.50;101778.31;1749066;80;21727;-62
2021/11/12 07:29:57;;;;;;;5.87;3.00;;;;;;;10.80;84.77;101777.34;1744871;80;20997;-61
2021/11/12 07:32:24;;;;;;;3.87;2.20;;;;;;;10.82;84.38;101770.16;1745066;80;21010;-61
2021/11/12 07:34:52;;;;;;;4.58;2.10;;;;;;;10.83;83.85;101766.55;1743501;80;21192;-60
2021/11/12 07:37:19;;;;;;;3.75;2.20;;;;;;;10.84;83.70;101766.54;1746640;80;21474;-60
2021/11/12 07:39:50;;;;;;;4.55;2.47;;;;;;;10.90;83.38;101766.88;1717456;81;21149;-57
2021/11/12 07:47:22;;;;;;;4.40;2.17;;;;;;;11.08;81.80;101764.74;1731248;81;21042;-60
2021/11/12 07:49:55;;;;;;;5.00;1.98;;;;;;;11.13;81.53;101760.16;1725383;82;21111;-61
2021/11/12 07:52:27;;;;;;;3.27;1.87;;;;;;;11.16;81.30;101762.33;1723167;82;21141;-61
2021/11/12 07:54:54;;;;;;;3.72;1.67;;;;;;;11.22;80.80;101756.39;1721459;82;21305;-62
2021/11/12 07:57:21;;;;;;;3.17;1.87;;;;;;;11.28;80.29;101753.56;1716098;82;21938;-63
2021/11/12 07:59:48;;;;;;;3.80;1.92;;;;;;;11.34;79.89;101758.80;1722251;82;22316;-61
2021/11/12 08:02:17;;;;;;;6.72;2.12;;;;;;;11.37;79.83;101752.01;1722217;81;21077;-62
2021/11/12 08:04:45;;;;;;;4.03;2.40;;;;;;;11.48;79.45;101752.24;1730193;81;21442;-62
2021/11/12 08:07:12;;;;;;;4.15;2.30;;;;;;;11.55;78.94;101749.83;1722643;82;21422;-62
2021/11/12 08:09:51;;;;;;;6.30;2.25;;;;;;;11.60;78.56;101755.97;1729100;82;22203;-62
2021/11/12 08:12:10;;;;;;;3.25;1.90;;;;;;;11.64;78.24;101747.39;1726593;82;21597;-61
2021/11/12 08:22:35;;;;;;;4.35;1.75;;;;;;;11.81;76.54;101744.30;1727657;82;21513;-62
2021/11/12 08:25:20;;;;;;;7.10;2.75;;;;;;;11.84;76.41;101742.91;1725786;82;21595;-63
2021/11/12 08:39:17;;;;;;;6.10;3.30;;;;;;;11.98;75.50;101733.15;1735263;82;21124;-62
2021/11/12 08:41:04;;;;;;;4.30;2.87;;;;;;;11.98;75.74;101735.36;1707667;82;21567;-62
2021/11/12 08:43:31;;;;;;;8.73;2.92;;;;;;;12.06;75.87;101726.27;1695669;83;21087;-63
2021/11/12 08:48:51;;;;;;;;;;;;;;;12.11;75.47;101715.80;1703175;82;21063;-59
2021/11/12 08:51:14;;;;;;;3.80;2.58;;;;;;;12.12;75.37;101712.66;1719802;81;20166;-59
2021/11/12 08:53:44;;;;;;;6.55;2.27;;;;;;;12.15;75.19;101717.48;1721805;82;21075;-58
2021/11/12 08:56:14;;;;;;;3.95;2.77;;;;;;;12.18;74.93;101717.87;1725178;82;21425;-60
2021/11/12 08:58:44;;;;;;;5.35;3.08;;;;;;;12.21;75.13;101714.23;1727123;82;21041;-58
2021/11/12 09:01:11;;;;;;;5.42;2.75;;;;;;;12.27;74.92;101712.27;1693666;82;21071;-59
2021/11/12 09:03:39;;;;;;;3.25;2.22;;;;;;;12.31;74.88;101717.08;1733938;82;21501;-59
2021/11/12 09:06:06;;;;;;;4.65;2.30;;;;;;;12.36;74.96;101711.59;1730298;82;21062;-60
2021/11/12 09:08:34;;;;;;;5.37;2.72;;;;;;;12.44;74.91;101709.56;1734622;82;21830;-59
2021/11/12 09:11:04;;;;;;;3.22;2.17;;;;;;;12.49;74.82;101690.17;1736757;82;21448;-60
2021/11/12 09:13:40;;;;;;;3.20;2.10;;;;;;;12.53;74.73;101687.80;1728597;82;21052;-59
2021/11/12 09:16:06;;;;;;;5.50;2.25;;;;;;;12.58;74.56;101692.59;1730630;82;21092;-59
2021/11/12 09:18:32;;;;;;;6.95;2.10;;;;;;;12.60;74.43;101682.66;1733731;82;21060;-60
2021/11/12 09:20:59;;;;;;;7.05;2.40;;;;;;;12.65;74.15;101682.98;1732779;82;21610;-59
2021/11/12 09:23:25;;;;;;;4.53;1.92;;;;;;;12.67;73.93;101684.72;1733908;82;21063;-60
2021/11/12 09:25:53;;;;;;;6.00;2.40;;;;;;;12.75;73.92;101681.80;1725510;81;21031;-58
2021/11/12 09:28:22;;;;;;;5.22;2.05;;;;;;;12.82;73.50;101673.96;1728955;82;20946;-60
2021/11/12 09:30:52;;;;;;;6.25;1.87;;;;;;;12.87;73.14;101666.63;1726291;80;20987;-60
2021/11/12 09:33:21;;;;;;;4.83;2.40;;;;;;;12.90;72.74;101670.56;1728837;80;21115;-59
2021/11/12 09:35:50;;;;;;;3.85;2.45;;;;;;;12.96;72.58;101667.30;1722113;82;21789;-59
2021/11/12 09:38:17;;;;;;;6.25;2.33;;;;;;;13.01;72.37;101662.64;1720891;82;22083;-60
2021/11/12 09:40:44;;;;;;;3.70;2.30;;;;;;;13.03;72.15;101662.12;1721932;82;21077;-60
2021/11/12 09:43:11;;;;;;;4.72;2.20;;;;;;;13.04;71.85;101663.44;1726690;80;20994;-59
2021/11/12 09:45:39;;;;;;;2.95;2.12;;;;;;;13.04;71.76;101662.55;1732934;82;22332;-59
2021/11/12 09:48:09;;;;;;;3.80;2.20;;;;;;;13.04;71.68;101650.43;1731593;80;21653;-60
2021/11/12 09:50:36;;;;;;;2.62;1.90;;;;;;;13.04;71.28;101653.13;1732868;81;21012;-59
2021/11/12 09:53:03;;;;;;;5.15;2.05;;;;;;;13.02;71.21;101653.64;1735044;82;22192;-60
2021/11/12 09:55:31;;;;;;;5.37;2.20;;;;;;;13.01;71.09;101640.63;1728817;81;21113;-59
2021/11/12 09:58:00;;;;;;;3.00;1.60;;;;;;;13.06;70.96;101635.59;1730530;81;21139;-59
2021/11/12 10:00:29;;;;;;;5.25;2.27;;;;;;;13.07;71.17;101643.60;1730689;82;21253;-57
2021/11/12 10:02:58;;;;;;;3.85;2.15;;;;;;;13.12;71.07;101641.64;1694309;84;21298;-60
2021/11/12 10:05:40;;;;;;;4.85;2.05;;;;;;;13.11;70.49;101642.56;1689810;82;21123;-60
2021/11/12 10:08:31;;;;;;;4.28;2.10;;;;;;;13.08;70.52;101637.28;1693044;82;21418;-59
2021/11/12 10:11:02;;;;;;;5.25;1.95;;;;;;;13.10;70.61;101642.16;1685334;83;21141;-60
2021/11/12 10:13:41;;;;;;;3.95;2.00;;;;;;;13.12;70.91;101637.59;1693903;82;21067;-61
2021/11/12 10:19:14;;;;;;;3.77;1.98;;;;;;;13.21;71.00;101632.88;1725058;82;21039;-60
2021/11/12 10:21:52;;;;;;;6.20;1.80;;;;;;;13.21;70.81;101624.80;1719238;81;21433;-59
2021/11/12 10:24:30;;;;;;;2.55;1.77;;;;;;;13.26;70.56;101632.25;1725201;81;21454;-61
2021/11/12 10:27:18;;;;;;;5.20;2.10;;;;;;;13.25;70.13;101625.97;1727382;80;21138;-60
2021/11/12 10:29:52;;;;;;;6.17;2.33;;;;;;;13.28;69.88;101630.39;1694023;81;21613;-59
2021/11/12 10:32:33;;;;;;;6.20;3.02;;;;;;;13.25;69.65;101623.76;1693652;82;21118;-59
2021/11/12 10:35:24;;;;;;;6.50;2.30;;;;;;;13.26;69.61;101627.77;1691554;81;21725;-59
2021/11/12 10:38:09;;;;;;;5.33;2.58;;;;;;;13.31;69.50;101623.55;1691966;81;21318;-60
2021/11/12 10:40:50;;;;;;;5.60;2.10;;;;;;;13.36;69.39;101619.37;1690201;81;21086;-60
2021/11/12 10:43:22;;;;;;;5.65;2.50;;;;;;;13.41;69.12;101620.98;1689479;81;21710;-58
2021/11/12 10:45:57;;;;;;;6.45;2.30;;;;;;;13.43;68.84;101619.16;1692466;82;21114;-59
2021/11/12 10:48:37;;;;;;;3.25;2.00;;;;;;;13.44;68.69;101611.48;1697540;81;21589;-58
2021/11/12 10:51:17;;;;;;;6.92;3.25;;;;;;;13.50;68.42;101614.45;1695444;82;21071;-58
2021/11/12 10:53:50;;;;;;;5.15;2.40;;;;;;;13.49;68.05;101605.05;1700053;82;21463;-59
2021/11/12 10:56:20;;;;;;;7.65;2.47;;;;;;;13.44;67.72;101606.09;1680683;84;22162;-58
2021/11/12 10:59:01;;;;;;;6.37;2.27;;;;;;;13.43;67.85;101608.83;1693452;83;21543;-59
2021/11/12 11:01:37;;;;;;;5.20;2.30;;;;;;;13.44;67.83;101604.75;1697477;82;21106;-61
2021/11/12 11:04:23;;;;;;;8.03;3.10;;;;;;;13.46;67.60;101605.58;1694497;82;21166;-61
2021/11/12 11:06:50;;;;;;;5.28;3.00;;;;;;;13.50;67.52;101601.42;1695242;82;21073;-59
2021/11/12 11:09:39;;;;;;;3.50;2.37;;;;;;;13.52;67.14;101598.22;1696320;83;21170;-59
2021/11/12 11:12:08;;;;;;;7.15;2.52;;;;;;;13.53;66.98;101600.88;1689588;82;21161;-61
2021/11/12 11:14:35;;;;;;;4.25;1.92;;;;;;;13.57;66.67;101593.55;1693366;83;21058;-59
2021/11/12 11:17:25;;;;;;;5.70;2.30;;;;;;;13.57;66.36;101596.23;1685379;82;21117;-58
2021/11/12 11:19:54;;;;;;;7.33;2.00;;;;;;;13.54;66.48;101597.69;1693804;82;21095;-59
2021/11/12 11:22:21;;;;;;;3.35;2.12;;;;;;;13.53;66.76;101604.02;1695262;82;20938;-60
2021/11/12 11:24:49;;;;;;;3.77;2.17;;;;;;;13.59;66.79;101593.02;1691088;84;21094;-58
2021/11/12 11:27:18;;;;;;;7.03;2.02;;;;;;;13.61;66.50;101590.70;1667724;84;21127;-60
2021/11/12 11:29:45;;;;;;;3.98;1.95;;;;;;;13.60;66.60;101582.69;1671178;84;22756;-63
2021/11/12 11:32:11;;;;;;;5.15;2.17;;;;;;;13.63;66.63;101583.92;1690264;84;21398;-62
2021/11/12 11:34:39;;;;;;;7.70;2.90;;;;;;;13.66;66.26;101586.95;1675243;84;20978;-63
2021/11/12 11:37:06;;;;;;;7.30;2.90;;;;;;;13.63;66.13;101578.53;1654496;85;21674;-63
2021/11/12 11:39:33;;;;;;;4.42;2.60;;;;;;;13.60;66.07;101584.90;1667334;84;21097;-61
2021/11/12 11:41:59;;;;;;;4.85;2.62;;;;;;;13.59;66.06;101583.14;1663414;85;21127;-61
2021/11/12 11:44:26;;;;;;;6.28;2.42;;;;;;;13.59;66.02;101580.89;1689515;82;21493;-63
2021/11/12 11:46:54;;;;;;;4.62;2.10;;;;;;;13.58;66.01;101588.12;1686608;82;21711;-64
2021/11/12 11:49:24;;;;;;;4.55;2.27;;;;;;;13.55;66.19;101573.86;1688071;84;21060;-61
2021/11/12 11:52:00;;;;;;;5.45;3.08;;;;;;;13.57;66.13;101580.07;1669498;84;21415;-63
2021/11/12 11:54:29;;;;;;;6.28;3.62;;;;;;;13.55;66.21;101564.42;1688945;84;21672;-65
2021/11/12 11:56:59;;;;;;;6.58;3.30;;;;;;;13.57;66.22;101564.80;1694871;82;20944;-61
2021/11/12 11:59:37;;;;;;;8.83;3.33;;;;;;;13.57;66.18;101555.37;1687444;84;21492;-62
2021/11/12 12:02:07;;;;;;;5.80;3.10;;;;;;;13.55;66.29;101554.55;1693231;83;21468;-63
2021/11/12 12:04:37;;;;;;;4.15;2.67;;;;;;;13.56;66.20;101554.06;1695237;82;21142;-63
2021/11/12 12:07:16;;;;;;;8.55;2.55;;;;;;;13.56;66.31;101554.95;1688449;84;21549;-64
2021/11/12 12:10:05;;;;;;;7.28;2.37;;;;;;;13.60;65.91;101550.36;1665477;84;21134;-61
2021/11/12 12:12:37;;;;;;;4.87;2.25;;;;;;;13.61;65.61;101557.50;1731767;82;21145;-63
2021/11/12 12:15:17;;;;;;;2.77;2.00;;;;;;;13.61;65.49;101548.07;1726477;82;21146;-64
2021/11/12 12:17:50;;;;;;;6.53;2.33;;;;;;;13.61;65.35;101549.42;1730675;82;21145;-62
2021/11/12 13:25:52;;;;;;;7.25;3.50;;;;;;;13.24;65.92;101539.86;1802503;77;20996;-61
2021/11/12 13:28:28;;;;;;;9.10;3.83;;;;;;;13.24;67.19;101535.83;1797346;78;21389;-61
2021/11/12 13:31:09;;;;;;;13.95;3.42;;;;;;;13.24;68.96;101539.86;1798266;78;21838;-61
2021/11/12 13:33:48;;;;;;;8.38;3.30;;;;;;;13.21;70.35;101538.63;1795602;78;21213;-61
2021/11/12 13:36:37;;;;;;;8.55;3.47;;;;;;;13.18;71.67;101543.63;1741027;80;21587;-62
2021/11/12 13:39:19;;;;;;;7.58;3.35;;;;;;;13.14;72.76;101544.19;1764213;79;21146;-60
2021/11/12 13:41:55;;;;;;;7.97;3.60;;;;;;;13.07;73.57;101540.44;1758663;79;22073;-57
2021/11/12 13:44:25;;;;;;;6.17;3.00;;;;;;;13.01;74.36;101537.47;1705372;81;21250;-58
2021/11/12 13:46:57;;;;;;;8.13;2.92;;;;;;;13.00;74.88;101541.95;1749710;79;21398;-58
2021/11/12 13:49:40;;;;;;;8.20;3.50;;;;;;;12.97;75.25;101539.85;1737362;81;21576;-58
2021/11/12 13:52:16;;;;;;;5.08;3.40;;;;;;;12.92;75.83;101544.48;1746467;81;21100;-58
2021/11/12 13:55:05;;;;;;;;;;;;;;;12.87;76.23;101542.82;1800054;77;21508;-58
2021/11/12 13:57:34;;;;;;;7.70;3.00;;;;;;;12.82;76.68;101543.89;1806040;78;21035;-59
2021/11/12 14:00:10;;;;;;;7.28;3.22;;;;;;;12.76;77.06;101546.34;1804455;78;21440;-61
2021/11/12 14:03:00;;;;;;;12.60;4.35;;;;;;;12.71;77.35;101541.53;1808239;77;21051;-60
2021/11/12 14:05:27;;;;;;;10.28;3.55;;;;;;;12.65;77.55;101535.02;1797758;78;21390;-60
2021/11/12 14:08:12;;;;;;;7.37;3.08;;;;;;;12.56;77.77;101539.76;1802999;77;21499;-61
2021/11/12 14:10:45;;;;;;;7.28;3.00;;;;;;;12.47;78.06;101538.68;1810369;77;21095;-60
2021/11/12 14:13:16;;;;;;;4.80;2.95;;;;;;;12.35;78.36;101540.41;1800341;77;21050;-60
2021/11/12 14:16:19;;;;;;;6.90;4.25;;;;;;;12.22;78.91;101543.45;1795043;78;21788;-60
2021/11/12 14:21:48;;;;;;;6.50;2.60;;;;;;;12.05;79.98;101543.95;1799976;78;21031;-61
2021/11/12 14:27:18;;;;;;;4.45;2.15;;;;;;;11.90;80.82;101543.88;1802850;77;21025;-60
2021/11/12 14:41:27;;;;;;;5.87;3.15;;;;;;;11.55;82.96;101545.71;1804518;77;20988;-58
2021/11/12 14:46:35;;;;;;;7.87;3.50;;;;;;;11.37;84.06;101549.28;1791054;78;21099;-58
2021/11/12 14:52:04;;;;;;;17.15;7.60;;;;;;;11.23;85.07;101550.12;1785514;78;22200;-57
2021/11/12 14:54:48;;;;;;;14.13;7.85;;;;;;;11.17;85.33;101561.44;1786088;78;20985;-61
2021/11/12 14:59:48;;;;;;;14.45;6.42;;;;;;;11.05;86.21;101556.35;1789700;78;21305;-62
2021/11/12 15:02:15;;;;;;;15.72;5.53;;;;;;;11.02;86.60;101564.48;1780928;78;21104;-58
2021/11/12 15:04:43;;;;;;;10.70;5.50;;;;;;;10.97;86.90;101559.22;1785614;78;21157;-60
2021/11/12 15:07:12;;;;;;;17.85;8.53;;;;;;;10.95;87.30;101564.22;1748594;80;21621;-55
2021/11/12 15:09:39;;;;;;;35.17;17.25;;;;;;;10.91;87.54;101562.50;1756631;79;21469;-56
2021/11/12 15:12:09;;;;;;;39.92;18.00;;;;;;;10.86;87.90;101568.86;1786630;79;21445;-58
2021/11/12 15:14:59;;;;;;;25.32;13.43;;;;;;;10.81;88.30;101568.09;1754957;79;21081;-58
2021/11/12 15:17:05;;;;;;;23.98;10.68;;;;;;;10.78;88.64;101565.48;1753570;80;21797;-58
2021/11/12 15:19:37;;;;;;;22.98;9.00;;;;;;;10.72;88.98;101570.95;1768052;80;21024;-59
2021/11/12 15:22:15;;;;;;;21.62;9.25;;;;;;;10.67;89.41;101578.23;1766057;80;21045;-58
2021/11/12 15:29:33;;;;;;;15.43;7.97;;;;;;;10.56;90.32;101571.32;1759264;80;21746;-57
2021/11/12 15:34:32;;;;;;;16.95;7.40;;;;;;;10.46;91.14;101575.09;1765641;79;21032;-58
2021/11/12 15:44:41;;;;;;;13.83;7.03;;;;;;;10.30;92.59;101580.77;1782440;79;21067;-58
2021/11/12 15:47:22;;;;;;;15.43;7.15;;;;;;;10.25;93.16;101579.96;1751999;79;21782;-62
2021/11/12 15:49:40;;;;;;;16.57;7.42;;;;;;;10.25;93.48;101586.66;1779662;79;21098;-65
2021/11/12 15:52:17;;;;;;;15.00;7.50;;;;;;;10.28;93.75;101591.98;1781956;78;21086;-61
2021/11/12 16:08:03;;;;;;;19.45;10.15;;;;;;;9.99;94.49;101598.78;1779652;79;22314;-61
2021/11/12 16:15:44;;;;;;;21.77;10.40;;;;;;;9.91;95.19;101596.71;1785953;79;20993;-57
2021/11/12 16:23:54;;;;;;;18.75;9.35;;;;;;;9.87;95.59;101613.76;1786401;78;21557;-60
2021/11/12 16:26:12;;;;;;;17.67;8.90;;;;;;;9.83;95.68;101610.68;1777405;79;22141;-57
2021/11/12 16:28:56;;;;;;;17.90;9.35;;;;;;;9.82;95.68;101616.51;1785936;79;20991;-58
2021/11/12 16:31:12;;;;;;;14.87;8.45;;;;;;;9.77;95.67;101621.08;1786280;79;21032;-63
2021/11/12 16:33:38;;;;;;;17.35;8.73;;;;;;;9.71;95.94;101615.36;1776180;78;21907;-60
2021/11/12 16:36:07;;;;;;;15.68;8.90;;;;;;;9.70;96.15;101626.09;1792180;79;21063;-60
2021/11/12 16:38:35;;;;;;;17.32;9.10;;;;;;;9.64;96.11;101628.44;1763799;79;21047;-63
2021/11/12 16:41:09;;;;;;;20.35;9.48;;;;;;;9.59;96.21;101632.96;1771372;78;21086;-61
2021/11/12 16:46:33;;;;;;;27.65;12.23;;;;;;;9.50;96.30;101638.48;1802713;79;21794;-57
2021/11/12 16:54:35;;;;;;;27.87;12.35;;;;;;;9.34;97.08;101637.37;1797489;79;21057;-59
2021/11/12 16:58:50;;;;;;;28.10;13.53;;;;;;;9.32;97.38;101635.19;1785648;78;21202;-60
2021/11/12 17:04:18;;;;;;;26.20;11.65;;;;;;;9.25;97.38;101636.20;1798109;79;21019;-60
2021/11/12 17:06:51;;;;;;;26.48;12.55;;;;;;;9.20;97.48;101634.05;1805287;79;21111;-61
2021/11/12 17:12:00;;;;;;;25.43;12.43;;;;;;;9.13;98.15;101635.45;1727799;80;21503;-58
2021/11/12 17:17:09;;;;;;;21.25;11.68;;;;;;;9.14;98.55;101635.89;1802847;79;21063;-57
2021/11/12 17:46:54;;;;;;;15.03;8.75;;;;;;;8.77;100.00;101640.44;1739717;81;21504;-57
2021/11/12 18:02:57;;;;;;;35.45;12.40;;;;;;;8.71;100.00;101636.05;1771198;80;21022;-58
2021/11/12 18:13:46;;;;;;;31.40;17.35;;;;;;;8.54;100.00;101650.97;1715528;81;21080;-61
2021/11/12 21:48:37;;;;;;;35.68;16.30;;;;;;;7.12;86.23;101681.97;1784402;79;21052;-57
2021/11/12 21:51:06;;;;;;;33.53;18.12;;;;;;;7.12;86.14;101681.97;1781349;78;21468;-60
2021/11/12 21:53:33;;;;;;;34.85;17.62;;;;;;;7.08;85.95;101685.55;1769559;79;21684;-60
2021/11/12 21:56:00;;;;;;;35.92;18.32;;;;;;;7.05;85.92;101688.24;1774268;80;21129;-61
2021/11/12 21:58:28;;;;;;;38.65;18.48;;;;;;;6.99;85.93;101680.28;1768989;79;21056;-61
2021/11/12 22:00:56;;;;;;;37.48;20.23;;;;;;;6.94;86.07;101679.40;1793784;78;21409;-57
2021/11/12 22:03:23;;;;;;;38.70;19.57;;;;;;;6.90;86.37;101682.98;1812987;78;21040;-57
2021/11/12 22:05:50;;;;;;;42.55;20.55;;;;;;;6.88;86.53;101674.54;1760285;79;20989;-57
2021/11/12 22:08:17;;;;;;;44.58;19.90;;;;;;;6.88;86.63;101682.54;1775354;80;21513;-59